createdAt,value
2019-06-27T00:02:33.229Z,22.00
2019-06-27T00:09:58.089Z,21.70
2019-06-27T00:14:57.835Z,21.70
2019-06-27T00:17:28.421Z,21.70
2019-06-27T00:19:56.894Z,21.70
2019-06-27T00:24:53.480Z,20.10
2019-06-27T00:27:21.945Z,21.70
2019-06-27T00:29:50.405Z,21.60
2019-06-27T00:32:18.966Z,21.20
2019-06-27T00:42:11.862Z,21.70
2019-06-27T00:47:08.456Z,21.70
2019-06-27T00:54:33.357Z,21.30
2019-06-27T01:01:59.871Z,21.00
2019-06-27T01:04:28.354Z,20.90
2019-06-27T01:11:53.038Z,21.30
2019-06-27T01:14:21.512Z,21.20
2019-06-27T01:19:18.203Z,21.10
2019-06-27T01:26:42.923Z,20.80
2019-06-27T01:29:11.370Z,21.00
2019-06-27T01:31:39.919Z,20.90
2019-06-27T01:34:08.357Z,20.90
2019-06-27T01:36:36.895Z,20.90
2019-06-27T01:39:06.180Z,20.80
2019-06-27T01:41:34.790Z,20.80
2019-06-27T01:44:03.333Z,20.80
2019-06-27T01:46:31.874Z,20.80
2019-06-27T01:49:00.351Z,20.80
2019-06-27T01:51:28.794Z,20.70
2019-06-27T01:53:57.343Z,20.60
2019-06-27T01:56:25.788Z,20.70
2019-06-27T01:58:54.255Z,20.60
2019-06-27T02:01:22.723Z,20.60
2019-06-27T02:03:51.161Z,20.50
2019-06-27T02:06:19.629Z,20.40
2019-06-27T02:08:48.125Z,20.40
2019-06-27T02:11:16.624Z,20.40
2019-06-27T02:13:45.071Z,20.30
2019-06-27T02:16:13.544Z,20.30
2019-06-27T02:18:42.010Z,20.30
2019-06-27T02:21:10.469Z,20.30
2019-06-27T02:23:38.931Z,20.30
2019-06-27T02:26:07.437Z,20.20
2019-06-27T02:28:36.188Z,20.20
2019-06-27T02:31:04.633Z,20.30
2019-06-27T02:33:33.091Z,20.30
2019-06-27T02:36:01.708Z,20.20
2019-06-27T02:38:30.156Z,20.20
2019-06-27T02:40:59.151Z,20.10
2019-06-27T02:43:27.829Z,20.10
2019-06-27T02:45:56.283Z,20.20
2019-06-27T02:48:24.751Z,20.00
2019-06-27T02:50:53.200Z,20.00
2019-06-27T02:53:21.680Z,20.00
2019-06-27T02:55:50.137Z,20.00
2019-06-27T02:58:30.086Z,20.00
2019-06-27T03:00:48.799Z,20.00
2019-06-27T03:03:17.320Z,20.00
2019-06-27T03:05:45.933Z,20.00
2019-06-27T03:08:14.823Z,20.00
2019-06-27T03:10:43.381Z,19.90
2019-06-27T03:13:11.949Z,19.90
2019-06-27T03:15:40.416Z,19.90
2019-06-27T03:18:08.917Z,19.70
2019-06-27T03:20:37.400Z,19.90
2019-06-27T03:23:05.873Z,19.80
2019-06-27T03:25:34.336Z,19.80
2019-06-27T03:28:02.871Z,19.70
2019-06-27T03:30:31.419Z,19.70
2019-06-27T03:32:59.923Z,19.80
2019-06-27T03:35:28.410Z,19.90
2019-06-27T03:37:56.922Z,19.90
2019-06-27T03:40:25.393Z,20.00
2019-06-27T03:42:53.902Z,20.00
2019-06-27T03:45:22.434Z,19.50
2019-06-27T03:47:50.941Z,19.70
2019-06-27T03:50:19.660Z,19.70
2019-06-27T03:52:48.278Z,19.80
2019-06-27T03:55:16.790Z,19.90
2019-06-27T03:57:45.653Z,19.90
2019-06-27T04:00:17.395Z,20.10
2019-06-27T04:02:46.069Z,20.10
2019-06-27T04:05:14.574Z,20.10
2019-06-27T04:07:43.075Z,20.10
2019-06-27T04:10:16.733Z,20.10
2019-06-27T04:12:41.858Z,20.20
2019-06-27T04:15:10.538Z,20.20
2019-06-27T04:17:39.009Z,20.20
2019-06-27T04:20:07.641Z,20.00
2019-06-27T04:22:36.138Z,20.20
2019-06-27T04:25:06.382Z,20.30
2019-06-27T04:27:34.817Z,20.30
2019-06-27T04:30:04.121Z,20.40
2019-06-27T04:32:32.636Z,20.50
2019-06-27T04:35:01.089Z,20.40
2019-06-27T04:37:29.612Z,20.50
2019-06-27T04:39:58.158Z,20.50
2019-06-27T04:42:26.599Z,20.60
2019-06-27T04:44:55.049Z,20.80
2019-06-27T04:47:23.520Z,20.80
2019-06-27T04:49:51.967Z,21.00
2019-06-27T04:52:20.403Z,21.20
2019-06-27T04:54:48.908Z,21.30
2019-06-27T04:57:17.343Z,21.40
2019-06-27T04:59:53.579Z,21.40
2019-06-27T05:02:15.997Z,21.60
2019-06-27T05:04:44.461Z,21.80
2019-06-27T05:07:12.917Z,21.80
2019-06-27T05:12:09.740Z,22.00
2019-06-27T05:14:38.323Z,22.10
2019-06-27T05:17:06.860Z,22.60
2019-06-27T05:19:35.377Z,22.40
2019-06-27T05:22:03.886Z,22.60
2019-06-27T05:24:32.503Z,22.60
2019-06-27T05:27:01.065Z,22.80
2019-06-27T05:29:29.503Z,22.90
2019-06-27T05:31:57.986Z,23.00
2019-06-27T05:34:35.835Z,23.10
2019-06-27T05:37:04.317Z,23.10
2019-06-27T05:39:32.985Z,23.30
2019-06-27T05:42:01.463Z,23.40
2019-06-27T05:44:29.958Z,23.40
2019-06-27T05:46:58.389Z,23.50
2019-06-27T05:49:26.877Z,23.70
2019-06-27T05:51:55.303Z,23.80
2019-06-27T05:54:23.802Z,23.90
2019-06-27T05:56:52.313Z,24.00
2019-06-27T05:59:20.835Z,24.00
2019-06-27T06:01:49.311Z,24.10
2019-06-27T06:04:17.761Z,24.20
2019-06-27T06:06:46.206Z,24.30
2019-06-27T06:09:14.674Z,24.50
2019-06-27T06:11:43.147Z,24.50
2019-06-27T06:14:11.634Z,24.60
2019-06-27T06:16:40.079Z,25.00
2019-06-27T06:19:08.518Z,25.00
2019-06-27T06:21:36.984Z,24.90
2019-06-27T06:24:05.421Z,25.00
2019-06-27T06:26:33.877Z,25.10
2019-06-27T06:29:02.377Z,25.30
2019-06-27T06:31:30.820Z,25.30
2019-06-27T06:33:59.289Z,25.30
2019-06-27T06:36:27.758Z,25.30
2019-06-27T06:38:56.194Z,25.50
2019-06-27T06:41:24.682Z,25.50
2019-06-27T06:43:53.198Z,25.70
2019-06-27T06:46:21.686Z,26.00
2019-06-27T06:48:50.155Z,26.10
2019-06-27T06:51:18.622Z,26.30
2019-06-27T06:53:47.064Z,26.40
2019-06-27T06:56:15.529Z,26.70
2019-06-27T06:58:43.994Z,27.20
2019-06-27T07:01:12.436Z,27.50
2019-06-27T07:03:40.901Z,27.90
2019-06-27T07:06:09.342Z,28.20
2019-06-27T07:08:37.818Z,28.30
2019-06-27T07:11:06.332Z,28.40
2019-06-27T07:13:34.789Z,28.50
2019-06-27T07:16:03.402Z,28.80
2019-06-27T07:18:31.865Z,29.00
2019-06-27T07:21:00.326Z,29.10
2019-06-27T07:23:28.822Z,29.30
2019-06-27T07:25:57.384Z,29.20
2019-06-27T07:28:25.852Z,29.20
2019-06-27T07:30:54.325Z,29.10
2019-06-27T07:33:22.766Z,29.10
2019-06-27T07:35:51.225Z,29.30
2019-06-27T07:38:19.749Z,29.30
2019-06-27T07:40:48.200Z,29.70
2019-06-27T07:43:16.651Z,29.80
2019-06-27T07:45:45.181Z,29.80
2019-06-27T07:48:13.624Z,29.90
2019-06-27T07:50:42.135Z,30.20
2019-06-27T07:53:10.683Z,30.40
2019-06-27T07:55:39.202Z,30.40
2019-06-27T07:58:07.673Z,30.50
2019-06-27T08:00:36.248Z,30.60
2019-06-27T08:03:04.787Z,30.80
2019-06-27T08:05:33.236Z,31.00
2019-06-27T08:08:01.781Z,30.80
2019-06-27T08:10:30.300Z,30.90
2019-06-27T08:12:58.750Z,30.70
2019-06-27T08:15:27.320Z,30.70
2019-06-27T08:17:55.831Z,30.50
2019-06-27T08:20:24.257Z,30.60
2019-06-27T08:22:52.747Z,30.80
2019-06-27T08:25:21.520Z,31.10
2019-06-27T08:27:49.976Z,31.20
2019-06-27T08:30:18.742Z,31.30
2019-06-27T08:32:47.190Z,31.20
2019-06-27T08:35:15.880Z,31.20
2019-06-27T08:37:44.323Z,31.20
2019-06-27T08:40:13.039Z,31.00
2019-06-27T08:42:41.571Z,30.90
2019-06-27T08:45:10.926Z,31.20
2019-06-27T08:47:39.401Z,31.50
2019-06-27T08:50:09.422Z,31.60
2019-06-27T08:52:37.878Z,31.90
2019-06-27T08:55:08.120Z,32.50
2019-06-27T08:57:36.579Z,32.50
2019-06-27T09:00:08.519Z,32.40
2019-06-27T09:02:37.027Z,32.80
2019-06-27T09:05:07.144Z,33.30
2019-06-27T09:07:35.667Z,33.30
2019-06-27T09:10:06.012Z,33.60
2019-06-27T09:12:34.498Z,34.00
2019-06-27T09:15:03.698Z,34.20
2019-06-27T09:17:32.164Z,34.30
2019-06-27T09:20:00.632Z,34.00
2019-06-27T09:22:29.072Z,33.80
2019-06-27T09:24:57.604Z,33.40
2019-06-27T09:27:26.134Z,33.40
2019-06-27T09:29:54.570Z,33.20
2019-06-27T09:32:25.943Z,33.40
2019-06-27T09:34:53.218Z,33.30
2019-06-27T09:37:21.769Z,33.60
2019-06-27T09:39:50.202Z,33.70
2019-06-27T09:42:18.692Z,33.90
2019-06-27T09:44:47.221Z,34.10
2019-06-27T09:47:15.759Z,33.90
2019-06-27T09:49:44.294Z,34.00
2019-06-27T09:52:12.743Z,33.60
2019-06-27T09:54:41.269Z,33.50
2019-06-27T09:57:09.717Z,33.70
2019-06-27T09:59:38.181Z,33.60
2019-06-27T10:02:06.691Z,34.00
2019-06-27T10:04:35.171Z,33.90
2019-06-27T10:07:03.693Z,33.70
2019-06-27T10:09:32.161Z,34.20
2019-06-27T10:12:00.671Z,35.10
2019-06-27T10:14:29.144Z,35.00
2019-06-27T10:16:58.689Z,34.90
2019-06-27T10:19:27.412Z,34.90
2019-06-27T10:21:55.914Z,34.20
2019-06-27T10:24:24.428Z,34.30
2019-06-27T10:26:52.909Z,34.70
2019-06-27T10:29:21.369Z,35.20
2019-06-27T10:31:49.857Z,35.30
2019-06-27T10:34:18.449Z,35.30
2019-06-27T10:36:47.049Z,35.50
2019-06-27T10:39:15.567Z,35.70
2019-06-27T10:41:44.119Z,35.10
2019-06-27T10:44:12.582Z,35.00
2019-06-27T10:46:41.147Z,34.30
2019-06-27T10:49:09.648Z,34.80
2019-06-27T10:51:38.102Z,34.90
2019-06-27T10:54:06.610Z,35.00
2019-06-27T10:56:39.617Z,35.30
2019-06-27T10:59:05.273Z,35.80
2019-06-27T11:01:33.796Z,36.00
2019-06-27T11:04:02.249Z,35.70
2019-06-27T11:06:30.724Z,35.40
2019-06-27T11:08:59.221Z,35.50
2019-06-27T11:11:27.662Z,34.90
2019-06-27T11:13:59.341Z,34.80
2019-06-27T11:16:26.593Z,35.00
2019-06-27T11:18:55.142Z,35.10
2019-06-27T11:21:23.606Z,35.30
2019-06-27T11:23:52.124Z,35.90
2019-06-27T11:26:20.681Z,36.00
2019-06-27T11:28:49.254Z,35.90
2019-06-27T11:31:17.714Z,35.90
2019-06-27T11:33:46.259Z,35.10
2019-06-27T11:36:14.779Z,35.60
2019-06-27T11:38:43.314Z,35.60
2019-06-27T11:41:11.752Z,36.10
2019-06-27T11:46:09.005Z,36.30
2019-06-27T11:48:37.658Z,36.30
2019-06-27T11:51:06.182Z,36.30
2019-06-27T11:53:34.630Z,36.20
2019-06-27T11:56:03.185Z,36.20
2019-06-27T11:58:31.726Z,36.20
2019-06-27T12:03:28.484Z,35.80
2019-06-27T12:05:56.965Z,35.70
2019-06-27T12:08:25.439Z,36.00
2019-06-27T12:10:54.031Z,36.00
2019-06-27T12:13:22.500Z,36.60
2019-06-27T12:15:51.753Z,36.60
2019-06-27T12:18:20.354Z,36.00
2019-06-27T12:20:48.802Z,35.80
2019-06-27T12:23:17.276Z,36.00
2019-06-27T12:25:45.714Z,36.20
2019-06-27T12:28:14.610Z,35.70
2019-06-27T12:30:43.057Z,35.10
2019-06-27T12:33:11.530Z,34.90
2019-06-27T12:35:40.038Z,35.10
2019-06-27T12:38:08.596Z,35.70
2019-06-27T12:40:37.245Z,35.70
2019-06-27T12:43:05.780Z,35.60
2019-06-27T12:45:34.344Z,35.50
2019-06-27T12:48:07.268Z,35.40
2019-06-27T12:50:33.057Z,35.10
2019-06-27T12:53:01.501Z,34.80
2019-06-27T12:55:29.971Z,34.70
2019-06-27T12:57:58.409Z,34.40
2019-06-27T13:00:27.333Z,34.30
2019-06-27T13:02:55.849Z,34.10
2019-06-27T13:05:24.381Z,33.90
2019-06-27T13:07:53.023Z,33.70
2019-06-27T13:10:22.727Z,33.60
2019-06-27T13:12:51.271Z,33.60
2019-06-27T13:15:19.974Z,33.50
2019-06-27T13:17:48.423Z,33.50
2019-06-27T13:20:17.034Z,33.20
2019-06-27T13:22:45.539Z,33.30
2019-06-27T13:25:14.075Z,33.40
2019-06-27T13:27:42.545Z,33.50
2019-06-27T13:30:11.453Z,33.50
2019-06-27T13:32:39.972Z,33.60
2019-06-27T13:35:08.562Z,33.50
2019-06-27T13:37:37.015Z,33.50
2019-06-27T13:40:07.018Z,33.30
2019-06-27T13:42:38.163Z,33.20
2019-06-27T13:45:07.143Z,32.90
2019-06-27T13:47:35.779Z,32.90
2019-06-27T13:50:06.509Z,33.00
2019-06-27T13:52:35.071Z,32.90
2019-06-27T13:55:04.151Z,32.80
2019-06-27T13:57:32.660Z,32.70
2019-06-27T14:00:01.535Z,32.70
2019-06-27T14:02:30.161Z,32.60
2019-06-27T14:04:58.633Z,32.60
2019-06-27T14:07:27.093Z,32.60
2019-06-27T14:09:57.316Z,32.50
2019-06-27T14:12:25.724Z,32.60
2019-06-27T14:14:59.747Z,32.60
2019-06-27T14:17:24.373Z,32.50
2019-06-27T14:19:52.897Z,32.50
2019-06-27T14:22:32.627Z,32.40
2019-06-27T14:24:51.552Z,32.50
2019-06-27T14:27:20.217Z,32.60
2019-06-27T14:29:48.674Z,32.70
2019-06-27T14:32:17.212Z,32.70
2019-06-27T14:34:45.800Z,32.70
2019-06-27T14:37:14.274Z,32.60
2019-06-27T14:39:42.787Z,32.50
2019-06-27T14:42:11.249Z,32.40
2019-06-27T14:44:39.815Z,32.30
2019-06-27T14:47:08.303Z,32.40
2019-06-27T14:49:36.825Z,32.40
2019-06-27T14:52:05.269Z,32.50
2019-06-27T14:54:33.725Z,32.60
2019-06-27T14:57:02.160Z,32.60
2019-06-27T14:59:30.699Z,32.50
2019-06-27T15:01:59.169Z,32.50
2019-06-27T15:04:27.638Z,32.60
2019-06-27T15:06:56.108Z,32.70
2019-06-27T15:09:24.548Z,32.80
2019-06-27T15:11:53.005Z,32.80
2019-06-27T15:14:21.474Z,32.70
2019-06-27T15:16:49.939Z,32.60
2019-06-27T15:19:18.422Z,32.40
2019-06-27T15:21:46.938Z,32.30
2019-06-27T15:24:15.398Z,32.20
2019-06-27T15:26:43.859Z,32.00
2019-06-27T15:29:12.342Z,31.90
2019-06-27T15:31:40.997Z,31.70
2019-06-27T15:34:09.507Z,31.60
2019-06-27T15:36:38.001Z,31.70
2019-06-27T15:39:07.117Z,31.70
2019-06-27T15:41:35.590Z,31.70
2019-06-27T15:44:04.083Z,31.80
2019-06-27T15:46:32.596Z,31.80
2019-06-27T15:49:01.067Z,31.90
2019-06-27T15:51:29.741Z,32.00
2019-06-27T15:53:58.196Z,32.10
2019-06-27T15:56:26.725Z,32.10
2019-06-27T15:58:55.313Z,32.20
2019-06-27T16:01:24.813Z,32.20
2019-06-27T16:03:53.277Z,32.10
2019-06-27T16:06:26.248Z,32.10
2019-06-27T16:08:54.854Z,32.00
2019-06-27T16:11:23.372Z,32.10
2019-06-27T16:13:51.851Z,32.10
2019-06-27T16:16:20.375Z,31.90
2019-06-27T16:18:49.183Z,31.70
2019-06-27T16:21:17.692Z,31.60
2019-06-27T16:23:46.130Z,31.60
2019-06-27T16:26:14.607Z,31.60
2019-06-27T16:28:43.256Z,31.70
2019-06-27T16:31:11.729Z,31.70
2019-06-27T16:33:40.248Z,31.60
2019-06-27T16:36:24.204Z,31.70
2019-06-27T16:38:39.051Z,31.60
2019-06-27T16:43:35.710Z,31.20
2019-06-27T16:46:04.352Z,31.50
2019-06-27T16:48:32.880Z,31.40
2019-06-27T16:51:01.358Z,31.40
2019-06-27T16:53:29.878Z,31.40
2019-06-27T16:55:58.575Z,31.30
2019-06-27T16:58:27.028Z,31.30
2019-06-27T17:00:55.496Z,31.30
2019-06-27T17:03:25.779Z,31.20
2019-06-27T17:05:54.575Z,31.10
2019-06-27T17:08:23.127Z,30.90
2019-06-27T17:10:51.656Z,30.80
2019-06-27T17:13:20.266Z,30.80
2019-06-27T17:15:48.763Z,30.80
2019-06-27T17:18:17.233Z,30.80
2019-06-27T17:20:45.819Z,30.70
2019-06-27T17:23:14.368Z,30.70
2019-06-27T17:25:42.834Z,30.60
2019-06-27T17:28:11.286Z,30.50
2019-06-27T17:30:39.751Z,30.40
2019-06-27T17:33:08.264Z,30.30
2019-06-27T17:35:36.732Z,30.30
2019-06-27T17:38:08.135Z,30.30
2019-06-27T17:40:36.693Z,30.20
2019-06-27T17:43:05.618Z,30.20
2019-06-27T17:45:34.253Z,30.20
2019-06-27T17:48:02.821Z,30.10
2019-06-27T17:52:59.480Z,29.70
2019-06-27T17:55:27.942Z,29.80
2019-06-27T17:57:56.466Z,29.80
2019-06-27T18:00:25.011Z,29.70
2019-06-27T18:02:53.646Z,29.70
2019-06-27T18:05:22.288Z,29.60
2019-06-27T18:07:50.776Z,29.60
2019-06-27T18:10:20.327Z,29.40
2019-06-27T18:15:17.058Z,29.30
2019-06-27T18:17:45.506Z,29.30
2019-06-27T18:22:42.401Z,29.30
2019-06-27T18:35:05.052Z,28.50
2019-06-27T18:37:33.578Z,28.40
2019-06-27T18:40:02.111Z,28.60
2019-06-27T18:44:58.657Z,28.50
2019-06-27T18:52:23.467Z,28.00
2019-06-27T18:59:48.223Z,27.70
2019-06-27T19:07:13.070Z,27.80
2019-06-27T19:12:09.853Z,27.60
2019-06-27T19:19:38.923Z,27.30
2019-06-27T19:29:35.219Z,27.10
2019-06-27T19:34:31.816Z,27.00
2019-06-27T19:49:22.112Z,26.90
2019-06-27T20:04:11.345Z,26.40
2019-06-27T20:11:36.224Z,26.20
2019-06-27T20:16:32.908Z,26.00
2019-06-27T20:21:29.548Z,25.60
2019-06-27T20:26:26.194Z,25.40
2019-06-27T20:31:22.873Z,25.10
2019-06-27T20:36:19.471Z,24.90
2019-06-27T20:43:44.199Z,24.70
2019-06-27T20:48:40.961Z,24.60
2019-06-27T20:53:37.571Z,25.10
2019-06-27T20:56:06.108Z,25.10
2019-06-27T20:58:35.394Z,24.30
2019-06-27T21:03:32.233Z,24.20
2019-06-27T21:06:00.712Z,24.40
2019-06-27T21:10:57.319Z,24.30
2019-06-27T21:18:22.236Z,23.70
2019-06-27T21:25:47.030Z,22.90
2019-06-27T21:30:45.180Z,22.70
2019-06-27T21:38:14.351Z,22.10
2019-06-27T21:48:07.242Z,21.90
2019-06-27T21:53:03.982Z,21.40
2019-06-27T21:58:00.553Z,21.60
2019-06-27T22:02:59.060Z,21.40
2019-06-27T22:10:23.786Z,21.20
2019-06-27T22:17:48.574Z,21.30
2019-06-27T22:22:45.538Z,20.90
2019-06-27T22:35:07.707Z,20.60
2019-06-27T22:43:08.105Z,20.20
2019-06-27T22:45:54.732Z,20.20
2019-06-27T22:50:52.743Z,19.90
2019-06-27T22:56:03.651Z,20.30
2019-06-27T23:05:56.581Z,19.20
2019-06-27T23:13:21.426Z,19.10
2019-06-27T23:20:46.250Z,19.00
2019-06-27T23:28:10.948Z,18.80
2019-06-27T23:35:35.730Z,18.70
2019-06-27T23:40:32.453Z,18.60
2019-06-27T23:45:29.042Z,18.60
2019-06-27T23:50:25.762Z,18.30
2019-06-27T23:52:54.196Z,18.50
